Terminal Aerodrome Forecast
Issued by NWS

Current Version | Previous Version | Graphics & Text | Print | Product List | Glossary On
Versions: 1 2 3 4 5 6 7 8 9 10 11 12 13 14 15 16 17 18 19
000
FTUS41 KPBZ 280800 AAA
TAFMGW
TAF AMD
KMGW 280854Z 2809/2906 32006KT 6SM -SHSN BKN015 OVC025
      TEMPO 2809/2812 BKN015 OVC025
     FM281200 28004KT P6SM SCT025
     FM281300 VRB03KT P6SM SKC
     FM290400 VRB03KT P6SM BKN100=

USA.gov is the U.S. government's official web portal to all federal, state and local government web resources and services.